sensor_id;sensor_type;location;lat;lon;timestamp;pressure;altitude;pressure_sealevel;temperature;humidity
54948;BME280;41113;41.882;12.530;2022-09-09T00:01:55;100773.28;;;25.91;86.59
54948;BME280;41113;41.882;12.530;2022-09-09T00:04:28;100760.38;;;25.91;84.25
54948;BME280;41113;41.882;12.530;2022-09-09T00:12:25;100749.00;;;25.88;85.74
54948;BME280;41113;41.882;12.530;2022-09-09T00:15:02;100751.50;;;25.89;87.58
54948;BME280;41113;41.882;12.530;2022-09-09T00:28:30;100754.50;;;25.88;88.11
54948;BME280;41113;41.882;12.530;2022-09-09T00:31:23;100750.66;;;25.89;89.20
54948;BME280;41113;41.882;12.530;2022-09-09T00:34:13;100751.50;;;25.89;88.68
54948;BME280;41113;41.882;12.530;2022-09-09T00:36:53;100750.91;;;25.87;89.19
54948;BME280;41113;41.882;12.530;2022-09-09T00:39:41;100747.41;;;25.80;89.50
54948;BME280;41113;41.882;12.530;2022-09-09T00:42:43;100737.13;;;25.57;90.74
54948;BME280;41113;41.882;12.530;2022-09-09T00:48:13;100725.44;;;25.62;88.91
54948;BME280;41113;41.882;12.530;2022-09-09T00:56:28;100712.44;;;25.69;91.18
54948;BME280;41113;41.882;12.530;2022-09-09T01:02:08;100713.69;;;25.73;89.87
54948;BME280;41113;41.882;12.530;2022-09-09T01:04:38;100721.69;;;25.74;89.79
54948;BME280;41113;41.882;12.530;2022-09-09T01:07:12;100726.34;;;25.74;90.33
54948;BME280;41113;41.882;12.530;2022-09-09T01:16:15;100709.50;;;25.70;91.41
54948;BME280;41113;41.882;12.530;2022-09-09T01:21:50;100706.75;;;25.70;92.63
54948;BME280;41113;41.882;12.530;2022-09-09T01:27:43;100700.44;;;25.63;93.03
54948;BME280;41113;41.882;12.530;2022-09-09T01:30:15;100709.94;;;25.67;91.66
54948;BME280;41113;41.882;12.530;2022-09-09T01:35:32;100697.25;;;25.66;92.52
54948;BME280;41113;41.882;12.530;2022-09-09T01:46:30;100711.16;;;25.71;92.39
54948;BME280;41113;41.882;12.530;2022-09-09T01:48:57;100709.50;;;25.70;91.62
54948;BME280;41113;41.882;12.530;2022-09-09T01:51:24;100726.59;;;25.72;91.04
54948;BME280;41113;41.882;12.530;2022-09-09T01:53:50;100720.03;;;25.73;90.74
54948;BME280;41113;41.882;12.530;2022-09-09T02:10:37;100738.69;;;25.53;80.82
54948;BME280;41113;41.882;12.530;2022-09-09T02:13:13;100741.31;;;25.48;73.93
54948;BME280;41113;41.882;12.530;2022-09-09T02:18:51;100732.09;;;25.54;77.20
54948;BME280;41113;41.882;12.530;2022-09-09T02:24:21;100730.44;;;25.53;77.87
54948;BME280;41113;41.882;12.530;2022-09-09T02:26:53;100723.25;;;25.52;77.33
54948;BME280;41113;41.882;12.530;2022-09-09T02:29:39;100714.41;;;25.50;76.43
54948;BME280;41113;41.882;12.530;2022-09-09T02:38:34;100726.59;;;25.54;76.05
54948;BME280;41113;41.882;12.530;2022-09-09T02:41:06;100726.59;;;25.54;76.63
54948;BME280;41113;41.882;12.530;2022-09-09T02:43:51;100722.19;;;25.53;76.35
54948;BME280;41113;41.882;12.530;2022-09-09T02:46:29;100722.41;;;25.52;76.05
54948;BME280;41113;41.882;12.530;2022-09-09T02:49:09;100713.19;;;25.46;75.45
54948;BME280;41113;41.882;12.530;2022-09-09T02:52:06;100723.72;;;25.49;74.65
54948;BME280;41113;41.882;12.530;2022-09-09T02:54:37;100711.28;;;25.47;75.61
54948;BME280;41113;41.882;12.530;2022-09-09T02:57:20;100721.13;;;25.36;74.84
54948;BME280;41113;41.882;12.530;2022-09-09T03:00:03;100721.09;;;25.24;72.96
54948;BME280;41113;41.882;12.530;2022-09-09T03:02:47;100726.69;;;25.18;73.73
54948;BME280;41113;41.882;12.530;2022-09-09T03:05:16;100721.38;;;25.04;74.27
54948;BME280;41113;41.882;12.530;2022-09-09T03:07:41;100723.47;;;25.02;73.57
54948;BME280;41113;41.882;12.530;2022-09-09T03:10:07;100727.31;;;25.01;74.77
54948;BME280;41113;41.882;12.530;2022-09-09T03:15:13;100733.63;;;25.02;74.46
54948;BME280;41113;41.882;12.530;2022-09-09T03:17:39;100727.75;;;24.98;74.71
54948;BME280;41113;41.882;12.530;2022-09-09T03:23:12;100732.13;;;25.06;74.86
54948;BME280;41113;41.882;12.530;2022-09-09T03:25:38;100728.38;;;25.19;74.67
54948;BME280;41113;41.882;12.530;2022-09-09T03:28:04;100738.91;;;25.22;74.33
54948;BME280;41113;41.882;12.530;2022-09-09T03:37:13;100750.91;;;25.09;75.72
54948;BME280;41113;41.882;12.530;2022-09-09T03:39:41;100749.00;;;25.09;76.20
54948;BME280;41113;41.882;12.530;2022-09-09T03:42:07;100749.59;;;25.11;76.34
54948;BME280;41113;41.882;12.530;2022-09-09T03:44:33;100752.81;;;25.08;76.84
54948;BME280;41113;41.882;12.530;2022-09-09T03:46:58;100745.41;;;25.09;77.28
54948;BME280;41113;41.882;12.530;2022-09-09T03:49:26;100747.59;;;25.00;79.71
54948;BME280;41113;41.882;12.530;2022-09-09T03:51:54;100748.50;;;24.94;80.74
54948;BME280;41113;41.882;12.530;2022-09-09T03:54:20;100735.06;;;24.86;81.12
54948;BME280;41113;41.882;12.530;2022-09-09T04:05:49;100732.41;;;24.79;82.49
54948;BME280;41113;41.882;12.530;2022-09-09T04:08:32;100733.47;;;24.78;84.02
54948;BME280;41113;41.882;12.530;2022-09-09T04:10:58;100732.78;;;24.83;82.22
54948;BME280;41113;41.882;12.530;2022-09-09T04:13:25;100736.28;;;24.90;82.16
54948;BME280;41113;41.882;12.530;2022-09-09T04:15:55;100725.31;;;24.90;82.04
54948;BME280;41113;41.882;12.530;2022-09-09T04:18:21;100715.59;;;24.69;82.93
54948;BME280;41113;41.882;12.530;2022-09-09T04:20:48;100705.06;;;24.48;83.54
54948;BME280;41113;41.882;12.530;2022-09-09T04:23:18;100708.13;;;24.58;83.02
54948;BME280;41113;41.882;12.530;2022-09-09T04:29:28;100704.38;;;24.71;81.84
54948;BME280;41113;41.882;12.530;2022-09-09T04:31:54;100702.56;;;24.65;82.07
54948;BME280;41113;41.882;12.530;2022-09-09T04:34:19;100713.25;;;24.73;82.02
54948;BME280;41113;41.882;12.530;2022-09-09T04:36:45;100712.94;;;24.63;84.05
54948;BME280;41113;41.882;12.530;2022-09-09T04:39:10;100713.53;;;24.46;85.65
54948;BME280;41113;41.882;12.530;2022-09-09T04:41:42;100721.94;;;24.51;84.49
54948;BME280;41113;41.882;12.530;2022-09-09T04:44:08;100722.25;;;24.62;83.64
54948;BME280;41113;41.882;12.530;2022-09-09T04:46:33;100720.44;;;24.74;82.62
54948;BME280;41113;41.882;12.530;2022-09-09T04:49:01;100716.16;;;24.78;82.54
54948;BME280;41113;41.882;12.530;2022-09-09T04:54:31;100721.19;;;24.81;81.82
54948;BME280;41113;41.882;12.530;2022-09-09T04:56:57;100722.72;;;24.77;81.56
54948;BME280;41113;41.882;12.530;2022-09-09T04:59:22;100717.91;;;24.72;81.75
54948;BME280;41113;41.882;12.530;2022-09-09T05:04:52;100724.53;;;24.83;81.33
54948;BME280;41113;41.882;12.530;2022-09-09T05:10:39;100739.19;;;24.95;80.84
54948;BME280;41113;41.882;12.530;2022-09-09T05:13:11;100729.44;;;24.99;80.74
54948;BME280;41113;41.882;12.530;2022-09-09T05:24:55;100741.50;;;25.17;80.80
54948;BME280;41113;41.882;12.530;2022-09-09T05:27:20;100746.22;;;25.28;80.25
54948;BME280;41113;41.882;12.530;2022-09-09T05:32:29;100760.44;;;25.25;80.43
54948;BME280;41113;41.882;12.530;2022-09-09T05:35:34;100763.63;;;25.22;80.37
54948;BME280;41113;41.882;12.530;2022-09-09T05:43:05;100785.88;;;25.68;79.00
54948;BME280;41113;41.882;12.530;2022-09-09T05:45:31;100779.94;;;26.13;77.47
54948;BME280;41113;41.882;12.530;2022-09-09T05:51:26;100780.13;;;27.12;72.49
54948;BME280;41113;41.882;12.530;2022-09-09T05:53:53;100785.38;;;27.53;72.52
54948;BME280;41113;41.882;12.530;2022-09-09T06:02:56;100779.19;;;28.70;68.33
54948;BME280;41113;41.882;12.530;2022-09-09T06:05:22;100782.19;;;29.02;66.98
54948;BME280;41113;41.882;12.530;2022-09-09T06:07:52;100781.22;;;29.35;65.68
54948;BME280;41113;41.882;12.530;2022-09-09T06:10:17;100786.91;;;29.46;65.32
54948;BME280;41113;41.882;12.530;2022-09-09T06:12:52;100784.56;;;29.37;64.40
54948;BME280;41113;41.882;12.530;2022-09-09T06:15:18;100784.38;;;29.44;64.43
54948;BME280;41113;41.882;12.530;2022-09-09T06:17:43;100784.31;;;29.61;64.34
54948;BME280;41113;41.882;12.530;2022-09-09T06:23:34;100787.34;;;29.37;64.02
54948;BME280;41113;41.882;12.530;2022-09-09T06:26:19;100783.50;;;29.60;63.49
54948;BME280;41113;41.882;12.530;2022-09-09T06:28:46;100789.97;;;29.71;63.01
54948;BME280;41113;41.882;12.530;2022-09-09T06:31:14;100789.97;;;29.49;63.63
54948;BME280;41113;41.882;12.530;2022-09-09T06:33:42;100782.38;;;29.18;64.73
54948;BME280;41113;41.882;12.530;2022-09-09T06:36:14;100777.88;;;29.11;64.83
54948;BME280;41113;41.882;12.530;2022-09-09T06:38:40;100769.63;;;29.17;64.88
54948;BME280;41113;41.882;12.530;2022-09-09T06:41:07;100776.63;;;29.24;65.06
54948;BME280;41113;41.882;12.530;2022-09-09T06:44:03;100772.09;;;29.35;64.02
54948;BME280;41113;41.882;12.530;2022-09-09T06:46:31;100774.66;;;29.41;64.73
54948;BME280;41113;41.882;12.530;2022-09-09T06:49:00;100761.28;;;29.33;64.84
54948;BME280;41113;41.882;12.530;2022-09-09T06:51:29;100771.56;;;29.16;65.90
54948;BME280;41113;41.882;12.530;2022-09-09T06:53:56;100768.09;;;29.04;66.52
54948;BME280;41113;41.882;12.530;2022-09-09T06:56:30;100772.59;;;29.10;66.59
54948;BME280;41113;41.882;12.530;2022-09-09T06:58:57;100769.25;;;29.08;66.96
54948;BME280;41113;41.882;12.530;2022-09-09T07:04:30;100760.94;;;29.08;67.35
54948;BME280;41113;41.882;12.530;2022-09-09T07:06:56;100768.44;;;28.91;67.89
54948;BME280;41113;41.882;12.530;2022-09-09T07:09:21;100768.66;;;28.67;69.00
54948;BME280;41113;41.882;12.530;2022-09-09T07:11:51;100770.16;;;28.75;68.91
54948;BME280;41113;41.882;12.530;2022-09-09T07:14:17;100777.03;;;28.72;68.55
54948;BME280;41113;41.882;12.530;2022-09-09T07:16:44;100772.84;;;28.70;69.03
54948;BME280;41113;41.882;12.530;2022-09-09T07:19:11;100770.84;;;28.65;68.89
54948;BME280;41113;41.882;12.530;2022-09-09T07:21:37;100773.84;;;28.64;69.05
54948;BME280;41113;41.882;12.530;2022-09-09T07:24:03;100771.16;;;28.52;69.22
54948;BME280;41113;41.882;12.530;2022-09-09T07:26:32;100790.25;;;28.54;69.19
54948;BME280;41113;41.882;12.530;2022-09-09T07:28:58;100783.06;;;28.69;68.41
54948;BME280;41113;41.882;12.530;2022-09-09T07:31:30;100792.75;;;28.89;67.56
54948;BME280;41113;41.882;12.530;2022-09-09T07:33:57;100786.06;;;28.85;67.56
54948;BME280;41113;41.882;12.530;2022-09-09T07:36:31;100801.13;;;28.94;67.46
54948;BME280;41113;41.882;12.530;2022-09-09T07:38:59;100798.06;;;29.12;67.10
54948;BME280;41113;41.882;12.530;2022-09-09T07:41:28;100801.72;;;29.18;66.24
54948;BME280;41113;41.882;12.530;2022-09-09T07:43:54;100798.84;;;29.29;65.83
54948;BME280;41113;41.882;12.530;2022-09-09T07:46:22;100799.94;;;29.28;65.88
54948;BME280;41113;41.882;12.530;2022-09-09T07:48:50;100803.91;;;29.16;65.94
54948;BME280;41113;41.882;12.530;2022-09-09T07:51:27;100807.53;;;29.16;65.43
54948;BME280;41113;41.882;12.530;2022-09-09T07:53:55;100814.78;;;29.22;65.79
54948;BME280;41113;41.882;12.530;2022-09-09T07:56:23;100812.03;;;29.22;65.97
54948;BME280;41113;41.882;12.530;2022-09-09T07:58:50;100820.47;;;29.32;64.92
54948;BME280;41113;41.882;12.530;2022-09-09T08:01:27;100823.25;;;29.32;65.27
54948;BME280;41113;41.882;12.530;2022-09-09T08:03:59;100831.53;;;29.32;65.69
54948;BME280;41113;41.882;12.530;2022-09-09T08:06:27;100833.22;;;29.33;65.20
54948;BME280;41113;41.882;12.530;2022-09-09T08:08:54;100831.47;;;29.27;65.47
54948;BME280;41113;41.882;12.530;2022-09-09T08:11:22;100837.25;;;29.26;65.33
54948;BME280;41113;41.882;12.530;2022-09-09T08:13:49;100847.66;;;29.19;65.05
54948;BME280;41113;41.882;12.530;2022-09-09T08:16:17;100854.53;;;29.16;64.67
54948;BME280;41113;41.882;12.530;2022-09-09T08:18:44;100852.69;;;29.22;64.29
54948;BME280;41113;41.882;12.530;2022-09-09T08:21:14;100852.88;;;29.15;63.28
54948;BME280;41113;41.882;12.530;2022-09-09T08:23:43;100848.69;;;29.12;64.38
54948;BME280;41113;41.882;12.530;2022-09-09T08:26:12;100854.53;;;29.16;62.58
54948;BME280;41113;41.882;12.530;2022-09-09T08:28:39;100852.88;;;29.15;63.81
54948;BME280;41113;41.882;12.530;2022-09-09T08:31:09;100850.16;;;29.20;62.93
54948;BME280;41113;41.882;12.530;2022-09-09T08:33:34;100852.66;;;29.38;62.69
54948;BME280;41113;41.882;12.530;2022-09-09T08:36:02;100854.53;;;29.55;61.05
54948;BME280;41113;41.882;12.530;2022-09-09T08:38:28;100857.81;;;29.52;62.33
54948;BME280;41113;41.882;12.530;2022-09-09T08:41:43;100850.97;;;29.37;60.76
54948;BME280;41113;41.882;12.530;2022-09-09T08:43:45;100854.19;;;29.29;62.27
54948;BME280;41113;41.882;12.530;2022-09-09T08:48:59;100866.31;;;29.67;59.57
54948;BME280;41113;41.882;12.530;2022-09-09T08:51:29;100863.19;;;29.85;59.27
54948;BME280;41113;41.882;12.530;2022-09-09T08:53:58;100862.00;;;29.76;60.79
54948;BME280;41113;41.882;12.530;2022-09-09T08:56:26;100859.44;;;29.69;60.66
54948;BME280;41113;41.882;12.530;2022-09-09T08:58:54;100867.06;;;29.84;60.29
54948;BME280;41113;41.882;12.530;2022-09-09T09:07:21;100868.22;;;29.88;57.55
54948;BME280;41113;41.882;12.530;2022-09-09T09:12:40;100870.50;;;29.69;58.32
54948;BME280;41113;41.882;12.530;2022-09-09T09:15:23;100856.63;;;29.91;54.83
54948;BME280;41113;41.882;12.530;2022-09-09T09:17:50;100853.06;;;29.69;57.28
54948;BME280;41113;41.882;12.530;2022-09-09T09:20:17;100863.34;;;29.52;58.22
54948;BME280;41113;41.882;12.530;2022-09-09T09:22:52;100860.31;;;29.31;58.03
54948;BME280;41113;41.882;12.530;2022-09-09T09:28:25;100850.34;;;29.74;56.75
54948;BME280;41113;41.882;12.530;2022-09-09T09:35:57;100861.56;;;30.38;55.73
54948;BME280;41113;41.882;12.530;2022-09-09T09:38:26;100859.75;;;30.54;52.90
54948;BME280;41113;41.882;12.530;2022-09-09T09:40:57;100846.81;;;30.59;53.94
54948;BME280;41113;41.882;12.530;2022-09-09T09:43:29;100850.75;;;30.63;54.02
54948;BME280;41113;41.882;12.530;2022-09-09T09:45:56;100846.31;;;30.62;53.39
54948;BME280;41113;41.882;12.530;2022-09-09T09:48:23;100841.31;;;30.64;53.84
54948;BME280;41113;41.882;12.530;2022-09-09T09:50:54;100843.34;;;30.79;53.52
54948;BME280;41113;41.882;12.530;2022-09-09T09:53:30;100847.31;;;30.88;53.04
54948;BME280;41113;41.882;12.530;2022-09-09T09:55:59;100845.44;;;30.99;52.66
54948;BME280;41113;41.882;12.530;2022-09-09T09:58:29;100838.00;;;31.10;52.38
54948;BME280;41113;41.882;12.530;2022-09-09T10:00:59;100842.81;;;31.19;51.71
54948;BME280;41113;41.882;12.530;2022-09-09T10:03:28;100838.97;;;31.25;51.56
54948;BME280;41113;41.882;12.530;2022-09-09T10:05:54;100829.03;;;31.40;51.28
54948;BME280;41113;41.882;12.530;2022-09-09T10:08:22;100832.38;;;31.42;51.10
54948;BME280;41113;41.882;12.530;2022-09-09T10:19:20;100823.78;;;31.43;46.54
54948;BME280;41113;41.882;12.530;2022-09-09T10:27:32;100805.72;;;31.36;46.80
54948;BME280;41113;41.882;12.530;2022-09-09T10:30:29;100811.53;;;31.29;46.98
54948;BME280;41113;41.882;12.530;2022-09-09T10:33:02;100801.84;;;31.37;48.59
54948;BME280;41113;41.882;12.530;2022-09-09T10:38:33;100805.44;;;31.37;46.68
54948;BME280;41113;41.882;12.530;2022-09-09T10:52:17;100807.28;;;31.16;46.64
54948;BME280;41113;41.882;12.530;2022-09-09T11:00:17;100817.13;;;31.49;45.68
54948;BME280;41113;41.882;12.530;2022-09-09T11:02:42;100819.09;;;31.54;47.90
54948;BME280;41113;41.882;12.530;2022-09-09T11:05:46;100825.66;;;31.27;45.05
54948;BME280;41113;41.882;12.530;2022-09-09T11:08:30;100815.66;;;31.26;44.00
54948;BME280;41113;41.882;12.530;2022-09-09T11:16:42;100830.75;;;31.51;45.29
54948;BME280;41113;41.882;12.530;2022-09-09T11:21:50;100837.19;;;31.14;45.88
54948;BME280;41113;41.882;12.530;2022-09-09T11:24:22;100838.88;;;30.73;45.82
54948;BME280;41113;41.882;12.530;2022-09-09T11:27:02;100837.22;;;30.40;45.56
54948;BME280;41113;41.882;12.530;2022-09-09T11:29:52;100835.88;;;30.16;46.33
54948;BME280;41113;41.882;12.530;2022-09-09T11:38:19;100833.34;;;30.41;45.88
54948;BME280;41113;41.882;12.530;2022-09-09T11:40:47;100835.47;;;30.61;46.79
54948;BME280;41113;41.882;12.530;2022-09-09T11:43:31;100839.16;;;30.72;45.61
54948;BME280;41113;41.882;12.530;2022-09-09T11:46:01;100831.72;;;30.82;46.56
54948;BME280;41113;41.882;12.530;2022-09-09T11:48:36;100823.13;;;30.79;44.83
54948;BME280;41113;41.882;12.530;2022-09-09T11:51:08;100828.06;;;30.72;41.92
54948;BME280;41113;41.882;12.530;2022-09-09T11:53:46;100834.16;;;30.69;44.51
54948;BME280;41113;41.882;12.530;2022-09-09T11:56:13;100826.44;;;30.81;44.04
54948;BME280;41113;41.882;12.530;2022-09-09T12:01:37;100822.69;;;30.97;41.74
54948;BME280;41113;41.882;12.530;2022-09-09T12:04:13;100828.78;;;30.94;40.94
54948;BME280;41113;41.882;12.530;2022-09-09T12:09:44;100811.88;;;30.95;43.26
54948;BME280;41113;41.882;12.530;2022-09-09T12:17:20;100821.22;;;30.89;42.53
54948;BME280;41113;41.882;12.530;2022-09-09T12:19:47;100824.00;;;30.89;41.76
54948;BME280;41113;41.882;12.530;2022-09-09T12:27:49;100817.03;;;30.82;37.20
54948;BME280;41113;41.882;12.530;2022-09-09T12:30:23;100816.44;;;30.75;40.66
54948;BME280;41113;41.882;12.530;2022-09-09T12:33:21;100811.25;;;30.56;36.09
54948;BME280;41113;41.882;12.530;2022-09-09T12:35:55;100810.28;;;30.35;38.03
54948;BME280;41113;41.882;12.530;2022-09-09T12:38:32;100806.91;;;30.28;39.29
54948;BME280;41113;41.882;12.530;2022-09-09T12:40:59;100807.44;;;30.25;40.47
54948;BME280;41113;41.882;12.530;2022-09-09T12:43:27;100802.72;;;30.26;40.09
54948;BME280;41113;41.882;12.530;2022-09-09T12:46:07;100803.38;;;30.38;39.38
54948;BME280;41113;41.882;12.530;2022-09-09T12:48:37;100810.31;;;30.41;39.92
54948;BME280;41113;41.882;12.530;2022-09-09T12:51:07;100800.03;;;30.36;39.59
54948;BME280;41113;41.882;12.530;2022-09-09T12:53:42;100801.13;;;30.35;40.28
54948;BME280;41113;41.882;12.530;2022-09-09T12:56:17;100792.97;;;30.23;41.01
54948;BME280;41113;41.882;12.530;2022-09-09T12:58:47;100794.41;;;30.26;41.02
54948;BME280;41113;41.882;12.530;2022-09-09T13:01:27;100789.91;;;30.20;41.02
54948;BME280;41113;41.882;12.530;2022-09-09T13:03:54;100780.97;;;30.13;41.71
54948;BME280;41113;41.882;12.530;2022-09-09T13:06:22;100781.50;;;30.10;42.34
54948;BME280;41113;41.882;12.530;2022-09-09T13:08:52;100784.56;;;30.08;42.42
54948;BME280;41113;41.882;12.530;2022-09-09T13:11:33;100785.38;;;30.09;42.82
54948;BME280;41113;41.882;12.530;2022-09-09T13:14:01;100787.63;;;30.12;43.14
54948;BME280;41113;41.882;12.530;2022-09-09T13:16:31;100787.06;;;30.10;43.71
54948;BME280;41113;41.882;12.530;2022-09-09T13:19:01;100779.00;;;30.08;43.74
54948;BME280;41113;41.882;12.530;2022-09-09T13:21:38;100781.25;;;30.11;43.46
54948;BME280;41113;41.882;12.530;2022-09-09T13:27:01;100765.94;;;30.03;41.07
54948;BME280;41113;41.882;12.530;2022-09-09T13:29:28;100764.59;;;30.06;41.38
54948;BME280;41113;41.882;12.530;2022-09-09T13:32:04;100774.66;;;30.17;40.35
54948;BME280;41113;41.882;12.530;2022-09-09T13:34:32;100773.97;;;30.32;41.80
54948;BME280;41113;41.882;12.530;2022-09-09T13:37:06;100771.78;;;30.39;40.47
54948;BME280;41113;41.882;12.530;2022-09-09T13:39:36;100762.34;;;30.35;41.17
54948;BME280;41113;41.882;12.530;2022-09-09T13:42:03;100776.22;;;30.40;41.43
54948;BME280;41113;41.882;12.530;2022-09-09T13:44:38;100775.63;;;30.33;37.85
54948;BME280;41113;41.882;12.530;2022-09-09T13:47:18;100766.75;;;30.31;39.34
54948;BME280;41113;41.882;12.530;2022-09-09T13:49:44;100774.03;;;30.42;40.51
54948;BME280;41113;41.882;12.530;2022-09-09T13:52:11;100765.75;;;30.47;38.55
54948;BME280;41113;41.882;12.530;2022-09-09T13:54:38;100769.69;;;30.56;39.91
54948;BME280;41113;41.882;12.530;2022-09-09T13:57:04;100755.38;;;30.64;39.37
54948;BME280;41113;41.882;12.530;2022-09-09T13:59:30;100767.06;;;30.72;39.25
54948;BME280;41113;41.882;12.530;2022-09-09T14:01:57;100767.66;;;30.79;38.94
54948;BME280;41113;41.882;12.530;2022-09-09T14:04:23;100767.34;;;30.75;38.76
54948;BME280;41113;41.882;12.530;2022-09-09T14:06:50;100763.47;;;30.76;38.81
54948;BME280;41113;41.882;12.530;2022-09-09T14:09:17;100769.28;;;30.70;38.25
54948;BME280;41113;41.882;12.530;2022-09-09T14:11:44;100768.97;;;30.66;38.60
54948;BME280;41113;41.882;12.530;2022-09-09T14:14:10;100772.84;;;30.65;38.48
54948;BME280;41113;41.882;12.530;2022-09-09T14:16:36;100775.31;;;30.61;37.54
54948;BME280;41113;41.882;12.530;2022-09-09T14:19:03;100784.13;;;30.58;37.87
54948;BME280;41113;41.882;12.530;2022-09-09T14:21:40;100780.13;;;30.44;34.02
54948;BME280;41113;41.882;12.530;2022-09-09T14:24:09;100786.47;;;30.40;37.09
54948;BME280;41113;41.882;12.530;2022-09-09T14:26:36;100777.91;;;30.41;37.30
54948;BME280;41113;41.882;12.530;2022-09-09T14:31:55;100786.19;;;30.36;36.99
54948;BME280;41113;41.882;12.530;2022-09-09T14:34:20;100786.19;;;30.36;36.51
54948;BME280;41113;41.882;12.530;2022-09-09T14:36:52;100781.69;;;30.30;35.02
54948;BME280;41113;41.882;12.530;2022-09-09T14:39:32;100798.84;;;30.27;34.90
54948;BME280;41113;41.882;12.530;2022-09-09T14:41:58;100788.34;;;30.29;36.44
54948;BME280;41113;41.882;12.530;2022-09-09T14:44:27;100789.44;;;30.28;35.99
54948;BME280;41113;41.882;12.530;2022-09-09T14:46:53;100794.16;;;30.27;36.31
54948;BME280;41113;41.882;12.530;2022-09-09T14:49:31;100790.16;;;30.18;35.32
54948;BME280;41113;41.882;12.530;2022-09-09T14:58:30;100794.56;;;30.14;37.33
54948;BME280;41113;41.882;12.530;2022-09-09T15:01:18;100793.16;;;30.12;37.34
54948;BME280;41113;41.882;12.530;2022-09-09T15:04:10;100801.16;;;30.08;38.35
54948;BME280;41113;41.882;12.530;2022-09-09T15:06:46;100802.19;;;30.02;37.98
54948;BME280;41113;41.882;12.530;2022-09-09T15:09:14;100809.94;;;30.00;38.50
54948;BME280;41113;41.882;12.530;2022-09-09T15:15:03;100800.41;;;29.91;38.51
54948;BME280;41113;41.882;12.530;2022-09-09T15:17:28;100802.28;;;29.85;38.31
54948;BME280;41113;41.882;12.530;2022-09-09T15:19:54;100801.72;;;29.83;38.71
54948;BME280;41113;41.882;12.530;2022-09-09T15:22:20;100810.03;;;29.83;38.58
54948;BME280;41113;41.882;12.530;2022-09-09T15:24:46;100809.41;;;29.76;37.71
54948;BME280;41113;41.882;12.530;2022-09-09T15:27:56;100806.56;;;29.71;34.84
54948;BME280;41113;41.882;12.530;2022-09-09T15:33:24;100803.75;;;29.66;37.23
54948;BME280;41113;41.882;12.530;2022-09-09T15:35:55;100797.38;;;29.65;35.05
54948;BME280;41113;41.882;12.530;2022-09-09T15:38:23;100805.94;;;29.64;36.33
54948;BME280;41113;41.882;12.530;2022-09-09T15:40:54;100797.56;;;29.59;33.74
54948;BME280;41113;41.882;12.530;2022-09-09T15:43:32;100803.31;;;29.52;33.73
54948;BME280;41113;41.882;12.530;2022-09-09T15:46:22;100803.50;;;29.46;33.18
54948;BME280;41113;41.882;12.530;2022-09-09T15:48:49;100811.53;;;29.47;36.09
54948;BME280;41113;41.882;12.530;2022-09-09T15:51:28;100815.91;;;29.43;33.96
54948;BME280;41113;41.882;12.530;2022-09-09T15:53:57;100813.66;;;29.40;33.95
54948;BME280;41113;41.882;12.530;2022-09-09T15:56:24;100815.56;;;29.39;35.78
54948;BME280;41113;41.882;12.530;2022-09-09T15:58:50;100807.53;;;29.38;35.63
54948;BME280;41113;41.882;12.530;2022-09-09T16:01:17;100818.88;;;29.36;36.12
54948;BME280;41113;41.882;12.530;2022-09-09T16:03:44;100820.47;;;29.32;35.88
54948;BME280;41113;41.882;12.530;2022-09-09T16:06:20;100825.69;;;29.29;35.42
54948;BME280;41113;41.882;12.530;2022-09-09T16:08:47;100815.94;;;29.26;36.77
54948;BME280;41113;41.882;12.530;2022-09-09T16:11:17;100818.66;;;29.21;36.99
54948;BME280;41113;41.882;12.530;2022-09-09T16:13:45;100814.78;;;29.22;37.69
54948;BME280;41113;41.882;12.530;2022-09-09T16:16:12;100818.66;;;29.21;38.05
54948;BME280;41113;41.882;12.530;2022-09-09T16:18:43;100812.78;;;29.18;38.62
54948;BME280;41113;41.882;12.530;2022-09-09T16:23:43;100822.97;;;29.12;39.29
54948;BME280;41113;41.882;12.530;2022-09-09T16:26:14;100821.72;;;29.03;39.32
54948;BME280;41113;41.882;12.530;2022-09-09T16:28:40;100822.25;;;29.00;39.44
54948;BME280;41113;41.882;12.530;2022-09-09T16:31:10;100819.06;;;28.91;39.74
54948;BME280;41113;41.882;12.530;2022-09-09T16:33:37;100821.25;;;28.89;39.64
54948;BME280;41113;41.882;12.530;2022-09-09T16:36:10;100823.06;;;28.83;39.70
54948;BME280;41113;41.882;12.530;2022-09-09T16:38:36;100819.25;;;28.85;39.90
54948;BME280;41113;41.882;12.530;2022-09-09T16:41:03;100825.25;;;28.81;40.06
54948;BME280;41113;41.882;12.530;2022-09-09T16:43:34;100816.03;;;28.76;40.23
54948;BME280;41113;41.882;12.530;2022-09-09T16:46:01;100815.72;;;28.72;40.09
54948;BME280;41113;41.882;12.530;2022-09-09T16:48:31;100820.91;;;28.69;38.76
54948;BME280;41113;41.882;12.530;2022-09-09T16:51:07;100823.34;;;28.65;38.37
54948;BME280;41113;41.882;12.530;2022-09-09T16:53:34;100818.91;;;28.64;39.68
54948;BME280;41113;41.882;12.530;2022-09-09T16:56:07;100813.28;;;28.59;39.41
54948;BME280;41113;41.882;12.530;2022-09-09T16:58:34;100822.06;;;28.56;39.82
54948;BME280;41113;41.882;12.530;2022-09-09T17:01:00;100824.75;;;28.51;40.14
54948;BME280;41113;41.882;12.530;2022-09-09T17:03:27;100825.53;;;28.46;40.27
54948;BME280;41113;41.882;12.530;2022-09-09T17:05:53;100830.13;;;28.41;40.39
54948;BME280;41113;41.882;12.530;2022-09-09T17:08:18;100827.28;;;28.36;40.94
54948;BME280;41113;41.882;12.530;2022-09-09T17:10:44;100831.06;;;28.30;41.39
54948;BME280;41113;41.882;12.530;2022-09-09T17:13:10;100839.81;;;28.27;41.71